Augusta, New Jersey
Current Conditions -  °F | °C
As of 9:53 AM on Sunday 21 Dec 2014 (Local Time) from KFWN Reporting Station
Haze Haze  
Wind Chill: 30°   Ceiling: 1300
Heat Index: 30°   Visibility: 6mi
Dew Point: 27°   Wind: 0mph
Humidity: 88%   Direction: NA
Pressure: 30.32"   Gusts: NA
Location:  41.13°N, 74.73°W
Report Text: KFWN 211453Z AUTO 00000KT 6SM BR BKN013 OVC018 M01/M03 A3032 RMK AO2 SLP271 T10111028 53011
Loading
Personal Weather Stations






























Interactive Weather Map New forecast layout! Learn more

10-Day Weather Forecast

Advertisements
Track Severe Weather on mobile